Time;durP1;ratioP1;P1;durP2;ratioP2;P2;SDS_P1;SDS_P2;PMS_P1;PMS_P2;Temp;Humidity;BMP_temperature;BMP_pressure;BME280_temperature;BME280_humidity;BME280_pressure;Samples;Min_cycle;Max_cycle;Signal;HPM_P1;HPM_P2
2021/03/12 00:01:09;;;;;;;5.33;2.23;;;8.10;99.90;;;;;;5036583;28;20273;-69
2021/03/12 00:03:36;;;;;;;2.30;2.03;;;8.00;99.90;;;;;;5043062;28;20177;-69
2021/03/12 00:06:05;;;;;;;2.30;1.67;;;7.90;99.90;;;;;;5045917;28;20779;-68
2021/03/12 00:08:37;;;;;;;3.20;1.63;;;7.90;99.90;;;;;;5047593;28;20417;-69
2021/03/12 00:11:03;;;;;;;6.00;1.70;;;7.80;99.90;;;;;;5036277;28;20436;-69
2021/03/12 00:13:29;;;;;;;2.70;1.87;;;7.90;99.90;;;;;;5034992;28;20448;-69
2021/03/12 00:15:55;;;;;;;3.73;2.63;;;7.80;99.90;;;;;;5034423;28;20521;-69
2021/03/12 00:18:29;;;;;;;3.77;2.00;;;7.60;99.90;;;;;;5033645;28;20232;-69
2021/03/12 00:20:55;;;;;;;2.83;1.90;;;7.50;99.90;;;;;;5034027;28;20448;-70
2021/03/12 00:23:21;;;;;;;4.77;1.90;;;7.50;99.90;;;;;;5035220;28;20851;-69
2021/03/12 00:25:47;;;;;;;8.70;1.70;;;7.60;99.90;;;;;;5034619;28;20261;-69
2021/03/12 00:28:15;;;;;;;3.57;2.53;;;7.50;99.90;;;;;;5034546;28;20233;-69
2021/03/12 00:30:42;;;;;;;7.03;1.53;;;7.50;99.90;;;;;;5033721;28;20425;-69
2021/03/12 00:33:08;;;;;;;3.53;2.60;;;7.60;99.90;;;;;;5035261;28;20813;-69
2021/03/12 00:35:36;;;;;;;5.40;2.60;;;7.50;99.90;;;;;;5033262;28;20414;-70
2021/03/12 00:38:02;;;;;;;5.67;2.60;;;7.60;99.90;;;;;;5032410;28;20186;-70
2021/03/12 00:40:31;;;;;;;3.83;2.20;;;7.60;99.90;;;;;;5034157;28;20449;-69
2021/03/12 00:42:57;;;;;;;6.10;2.00;;;7.60;99.90;;;;;;5035577;28;20425;-69
2021/03/12 00:45:30;;;;;;;4.73;1.90;;;7.60;99.90;;;;;;5038501;28;20462;-68
2021/03/12 00:47:56;;;;;;;4.93;2.30;;;7.60;99.90;;;;;;5036274;28;20241;-68
2021/03/12 00:50:26;;;;;;;3.83;2.20;;;7.60;99.90;;;;;;5034493;28;20954;-69
2021/03/12 00:52:51;;;;;;;4.20;1.80;;;7.60;99.90;;;;;;5034046;28;20179;-68
2021/03/12 00:55:17;;;;;;;4.10;2.80;;;7.60;99.90;;;;;;5035341;28;20428;-68
2021/03/12 00:57:43;;;;;;;6.30;2.27;;;7.60;99.90;;;;;;5033988;28;20167;-69
2021/03/12 01:00:09;;;;;;;4.83;2.20;;;7.40;99.90;;;;;;5033717;28;20552;-68
2021/03/12 01:02:35;;;;;;;6.90;2.20;;;7.40;99.90;;;;;;5033799;28;20543;-68
2021/03/12 01:05:00;;;;;;;6.50;2.60;;;7.40;99.90;;;;;;5033854;28;20449;-69
2021/03/12 01:07:26;;;;;;;3.47;1.90;;;7.40;99.90;;;;;;5033845;28;20628;-69
2021/03/12 01:09:51;;;;;;;4.57;2.80;;;7.40;99.90;;;;;;5033287;28;20282;-69
2021/03/12 01:12:17;;;;;;;6.33;2.97;;;7.20;99.90;;;;;;5033974;28;20195;-69
2021/03/12 01:14:43;;;;;;;4.50;2.50;;;7.20;99.90;;;;;;5034844;28;20255;-69
2021/03/12 01:17:08;;;;;;;3.60;2.37;;;7.20;99.90;;;;;;5033962;28;20179;-70
2021/03/12 01:19:34;;;;;;;6.57;3.23;;;7.20;99.90;;;;;;5033045;28;20179;-69
2021/03/12 01:21:59;;;;;;;9.47;3.77;;;7.30;99.90;;;;;;5033460;28;20225;-69
2021/03/12 01:24:25;;;;;;;4.97;3.20;;;7.30;99.90;;;;;;5033420;28;20214;-69
2021/03/12 01:26:51;;;;;;;4.50;3.20;;;7.30;99.90;;;;;;5034665;28;20199;-69
2021/03/12 01:29:16;;;;;;;6.70;2.67;;;7.40;99.90;;;;;;5034256;28;20249;-70
2021/03/12 01:31:42;;;;;;;8.73;2.97;;;7.40;99.90;;;;;;5037517;28;20194;-70
2021/03/12 01:34:07;;;;;;;3.73;2.43;;;7.40;99.90;;;;;;5036863;28;20190;-69
2021/03/12 01:36:33;;;;;;;4.27;2.10;;;7.40;99.90;;;;;;5037319;28;20167;-69
2021/03/12 01:38:59;;;;;;;5.03;2.53;;;7.30;99.90;;;;;;5036514;28;20258;-69
2021/03/12 01:41:24;;;;;;;7.60;2.40;;;7.40;99.90;;;;;;5037050;28;20274;-69
2021/03/12 01:43:50;;;;;;;7.37;2.47;;;7.40;99.90;;;;;;5037388;28;20175;-69
2021/03/12 01:46:15;;;;;;;3.03;2.20;;;7.30;99.90;;;;;;5037394;28;20178;-69
2021/03/12 01:48:41;;;;;;;6.27;2.70;;;7.30;99.90;;;;;;5053245;28;20182;-69
2021/03/12 01:51:08;;;;;;;6.10;2.77;;;7.30;99.90;;;;;;5056880;28;20197;-69
2021/03/12 01:53:35;;;;;;;5.50;2.33;;;7.20;99.90;;;;;;5060459;28;20186;-69
2021/03/12 01:56:02;;;;;;;6.07;2.27;;;7.20;99.90;;;;;;5059673;28;20417;-69
2021/03/12 01:58:27;;;;;;;5.00;2.30;;;7.20;99.90;;;;;;5055937;28;20420;-69
2021/03/12 02:00:53;;;;;;;4.47;3.03;;;7.10;99.90;;;;;;5057207;28;20431;-69
2021/03/12 02:03:27;;;;;;;4.70;2.67;;;7.20;99.90;;;;;;5057092;28;20175;-69
2021/03/12 02:05:53;;;;;;;5.37;2.53;;;7.20;99.90;;;;;;5056761;28;20456;-69
2021/03/12 02:08:19;;;;;;;4.80;2.57;;;7.20;99.90;;;;;;5054792;28;20430;-69
2021/03/12 02:10:57;;;;;;;5.97;2.97;;;7.10;99.90;;;;;;5056157;28;20914;-69
2021/03/12 02:13:43;;;;;;;9.50;2.63;;;7.10;99.90;;;;;;5055708;28;20250;-69
2021/03/12 02:16:17;;;;;;;5.40;3.07;;;7.10;99.90;;;;;;5043947;28;20449;-69
2021/03/12 02:19:07;;;;;;;4.57;2.70;;;7.10;99.90;;;;;;5044688;28;20432;-69
2021/03/12 02:21:40;;;;;;;5.67;2.87;;;7.10;99.90;;;;;;5044390;28;20464;-69
2021/03/12 02:24:21;;;;;;;6.83;3.30;;;7.20;99.90;;;;;;5042745;28;20547;-69
2021/03/12 02:26:47;;;;;;;2.97;2.60;;;7.10;99.90;;;;;;5040621;28;20444;-69
2021/03/12 02:29:15;;;;;;;4.73;2.50;;;7.10;99.90;;;;;;5046316;28;20466;-69
2021/03/12 02:31:42;;;;;;;5.43;2.97;;;7.20;99.90;;;;;;5047667;28;20194;-69
2021/03/12 02:34:10;;;;;;;4.53;2.60;;;7.10;99.90;;;;;;5036984;28;20402;-70
2021/03/12 02:36:38;;;;;;;6.80;2.50;;;7.10;99.90;;;;;;5044113;28;20420;-70
2021/03/12 02:39:08;;;;;;;4.30;2.50;;;7.10;99.90;;;;;;5046220;28;20436;-69
2021/03/12 02:41:35;;;;;;;10.60;2.87;;;7.10;99.90;;;;;;5051291;28;20452;-69
2021/03/12 02:44:02;;;;;;;6.63;2.30;;;7.10;99.90;;;;;;5050826;28;20496;-69
2021/03/12 02:46:28;;;;;;;5.90;3.37;;;7.10;99.90;;;;;;5047389;28;20751;-69
2021/03/12 02:48:55;;;;;;;3.97;2.27;;;7.10;99.90;;;;;;5046824;28;20815;-70
2021/03/12 02:51:22;;;;;;;10.00;2.63;;;7.10;99.90;;;;;;5052626;28;20463;-70
2021/03/12 02:53:49;;;;;;;3.80;2.00;;;7.20;99.90;;;;;;5046418;28;20466;-69
2021/03/12 02:56:15;;;;;;;9.00;2.47;;;7.20;99.90;;;;;;5050016;28;20436;-70
2021/03/12 02:58:43;;;;;;;8.13;2.50;;;7.20;99.90;;;;;;5040459;28;21027;-70
2021/03/12 03:01:10;;;;;;;7.17;2.53;;;7.20;99.90;;;;;;5047098;28;20544;-69
2021/03/12 03:03:37;;;;;;;7.13;2.60;;;7.20;99.90;;;;;;5047112;28;20417;-70
2021/03/12 03:06:05;;;;;;;5.80;2.40;;;7.20;99.90;;;;;;5041994;28;20433;-70
2021/03/12 03:08:33;;;;;;;7.17;2.37;;;7.20;99.90;;;;;;5048924;28;20428;-70
2021/03/12 03:11:01;;;;;;;10.73;3.23;;;7.10;99.90;;;;;;5041848;28;21031;-70
2021/03/12 03:13:32;;;;;;;5.47;2.63;;;7.20;99.90;;;;;;5042996;28;20980;-70
2021/03/12 03:16:00;;;;;;;6.43;2.17;;;7.20;99.90;;;;;;5047055;28;20909;-70
2021/03/12 03:18:27;;;;;;;7.50;3.10;;;7.20;99.90;;;;;;5055097;28;20466;-70
2021/03/12 03:20:55;;;;;;;6.70;2.70;;;7.20;99.90;;;;;;5055004;28;21048;-70
2021/03/12 03:23:20;;;;;;;3.53;2.13;;;7.20;99.90;;;;;;5048080;28;20998;-69
2021/03/12 03:25:46;;;;;;;9.63;2.43;;;7.30;99.90;;;;;;5035519;28;20521;-69
2021/03/12 03:28:11;;;;;;;4.33;2.20;;;7.30;99.90;;;;;;5034965;28;20171;-69
2021/03/12 03:30:37;;;;;;;6.77;2.20;;;7.30;99.90;;;;;;5034741;28;20252;-69
2021/03/12 03:33:02;;;;;;;6.07;2.30;;;7.30;99.90;;;;;;5034929;28;20170;-69
2021/03/12 03:35:28;;;;;;;6.30;3.10;;;7.30;99.90;;;;;;5036372;28;20300;-69
2021/03/12 03:37:53;;;;;;;5.90;2.60;;;7.30;99.90;;;;;;5034938;28;20276;-69
2021/03/12 03:40:20;;;;;;;8.10;2.50;;;7.30;99.90;;;;;;5034561;28;20203;-69
2021/03/12 03:42:47;;;;;;;13.77;2.97;;;7.30;99.90;;;;;;5035053;28;20608;-69
2021/03/12 03:45:14;;;;;;;6.77;2.50;;;7.30;99.90;;;;;;5036779;28;20786;-69
2021/03/12 03:47:43;;;;;;;7.27;2.93;;;7.30;99.90;;;;;;5036168;28;20405;-69
2021/03/12 03:50:10;;;;;;;8.20;2.57;;;7.20;99.90;;;;;;5043922;28;20439;-69
2021/03/12 03:52:35;;;;;;;6.30;2.47;;;7.20;99.90;;;;;;5044902;28;20398;-69
2021/03/12 03:55:02;;;;;;;8.33;3.27;;;7.20;99.90;;;;;;5043388;28;20790;-69
2021/03/12 03:57:28;;;;;;;7.53;2.90;;;7.20;99.90;;;;;;5034886;28;20198;-69
2021/03/12 03:59:55;;;;;;;6.10;3.67;;;7.20;99.90;;;;;;5034328;28;20425;-69
2021/03/12 04:02:21;;;;;;;6.03;3.17;;;7.10;99.90;;;;;;5034343;28;20410;-69
2021/03/12 04:04:50;;;;;;;11.20;3.27;;;7.10;99.90;;;;;;5034459;28;20453;-70
2021/03/12 04:07:19;;;;;;;11.60;3.73;;;7.20;99.90;;;;;;5052377;28;20416;-69
2021/03/12 04:09:48;;;;;;;6.03;2.90;;;7.20;99.90;;;;;;5054237;28;20460;-69
2021/03/12 04:12:14;;;;;;;9.20;4.37;;;7.20;99.90;;;;;;5055946;28;20496;-69
2021/03/12 04:14:41;;;;;;;4.67;2.43;;;7.10;99.90;;;;;;5057652;28;20443;-69
2021/03/12 04:17:07;;;;;;;11.87;2.90;;;7.10;99.90;;;;;;5055095;28;20436;-70
2021/03/12 04:19:33;;;;;;;8.73;2.70;;;7.10;99.90;;;;;;5055255;28;20416;-69
2021/03/12 04:22:00;;;;;;;5.20;2.70;;;7.20;99.90;;;;;;5054980;28;20790;-69
2021/03/12 04:24:26;;;;;;;9.43;2.73;;;7.20;99.90;;;;;;5054309;28;20460;-69
2021/03/12 04:26:52;;;;;;;6.70;3.03;;;7.10;99.90;;;;;;5049845;28;20836;-69
2021/03/12 04:29:18;;;;;;;4.13;2.30;;;7.10;99.90;;;;;;5034125;28;20418;-69
2021/03/12 04:31:44;;;;;;;5.73;2.90;;;7.10;99.90;;;;;;5034249;28;20516;-70
2021/03/12 04:34:10;;;;;;;5.93;2.43;;;7.20;99.90;;;;;;5034291;28;20217;-69
2021/03/12 04:36:37;;;;;;;6.80;2.53;;;7.10;99.90;;;;;;5034053;28;20446;-69
2021/03/12 04:39:03;;;;;;;8.67;2.93;;;7.10;99.90;;;;;;5051214;28;20174;-68
2021/03/12 04:41:29;;;;;;;8.83;3.20;;;7.10;99.90;;;;;;5053567;28;20474;-68
2021/03/12 04:43:55;;;;;;;7.40;2.50;;;7.10;99.90;;;;;;5053666;28;20418;-68
2021/03/12 04:46:21;;;;;;;6.80;2.30;;;7.20;99.90;;;;;;5054272;28;20170;-68
2021/03/12 04:48:47;;;;;;;4.20;2.60;;;7.10;99.90;;;;;;5051899;28;20178;-68
2021/03/12 04:51:13;;;;;;;7.17;2.40;;;7.10;99.90;;;;;;5053901;28;20574;-68
2021/03/12 04:53:39;;;;;;;5.33;2.60;;;7.10;99.90;;;;;;5053831;28;20404;-68
2021/03/12 04:56:06;;;;;;;7.23;3.33;;;7.20;99.90;;;;;;5053675;28;20443;-68
2021/03/12 04:58:32;;;;;;;6.70;2.90;;;7.30;99.90;;;;;;5051869;28;20424;-68
2021/03/12 05:00:58;;;;;;;5.50;2.50;;;7.20;99.90;;;;;;5053219;28;20433;-68
2021/03/12 05:03:25;;;;;;;11.70;2.87;;;7.20;99.90;;;;;;5054800;28;20495;-69
2021/03/12 05:05:54;;;;;;;6.57;2.03;;;7.20;99.90;;;;;;5058047;28;20455;-69
2021/03/12 05:08:20;;;;;;;5.70;2.30;;;7.20;99.90;;;;;;5056217;28;20968;-69
2021/03/12 05:11:07;;;;;;;5.60;2.70;;;7.30;99.90;;;;;;5055982;28;20510;-69
2021/03/12 05:13:33;;;;;;;4.70;2.40;;;7.30;99.90;;;;;;5058207;28;20405;-69
2021/03/12 05:15:59;;;;;;;11.60;3.03;;;7.40;99.90;;;;;;5057987;28;20414;-69
2021/03/12 05:18:24;;;;;;;7.00;2.30;;;7.40;99.90;;;;;;5057538;28;20606;-69
2021/03/12 05:20:51;;;;;;;7.00;3.00;;;7.40;99.90;;;;;;5055530;28;21043;-69
2021/03/12 05:23:17;;;;;;;7.73;2.47;;;7.40;99.90;;;;;;5057143;28;20662;-69
2021/03/12 05:25:43;;;;;;;6.00;2.50;;;7.40;99.90;;;;;;5057331;28;20495;-69
2021/03/12 05:28:09;;;;;;;5.57;2.80;;;7.30;99.90;;;;;;5056803;28;20432;-69
2021/03/12 05:30:35;;;;;;;4.77;1.90;;;7.30;99.90;;;;;;5054813;28;20301;-69
2021/03/12 05:33:01;;;;;;;8.50;3.20;;;7.30;99.90;;;;;;5047813;28;20409;-69
2021/03/12 05:35:26;;;;;;;12.23;3.10;;;7.40;99.90;;;;;;5037196;28;20508;-69
2021/03/12 05:37:52;;;;;;;7.53;4.20;;;7.30;99.90;;;;;;5054696;28;20179;-70
2021/03/12 05:40:19;;;;;;;6.67;3.33;;;7.30;99.90;;;;;;5057091;28;20698;-70
2021/03/12 05:42:45;;;;;;;7.43;3.00;;;7.20;99.90;;;;;;5056716;28;20169;-70
2021/03/12 05:45:11;;;;;;;11.43;4.63;;;7.20;99.90;;;;;;5057608;28;20444;-70
2021/03/12 05:47:37;;;;;;;10.40;3.43;;;7.10;99.90;;;;;;5055785;28;20592;-69
2021/03/12 05:50:05;;;;;;;11.57;4.07;;;7.00;99.90;;;;;;5054463;28;20429;-70
2021/03/12 05:52:31;;;;;;;7.87;3.17;;;7.10;99.90;;;;;;5057142;28;20220;-69
2021/03/12 05:54:59;;;;;;;6.67;3.80;;;7.10;99.90;;;;;;5057524;28;20409;-69
2021/03/12 05:57:25;;;;;;;8.13;3.30;;;7.10;99.90;;;;;;5056113;28;20506;-70
2021/03/12 05:59:52;;;;;;;8.80;3.50;;;7.00;99.90;;;;;;5045879;28;20442;-70
2021/03/12 06:02:17;;;;;;;13.00;2.80;;;7.10;99.90;;;;;;5049563;28;20273;-69
2021/03/12 06:04:46;;;;;;;11.57;3.10;;;7.10;99.90;;;;;;5036049;28;20549;-68
2021/03/12 06:07:16;;;;;;;9.43;2.97;;;7.10;99.90;;;;;;5047882;28;20676;-68
2021/03/12 06:09:43;;;;;;;8.83;3.60;;;7.10;99.90;;;;;;5059991;28;20516;-68
2021/03/12 06:12:10;;;;;;;7.83;3.43;;;7.10;99.90;;;;;;5050961;28;20437;-69
2021/03/12 06:14:51;;;;;;;17.03;3.80;;;7.20;99.90;;;;;;5056101;28;20416;-69
2021/03/12 06:17:45;;;;;;;11.43;4.90;;;7.10;99.90;;;;;;5054223;28;20505;-69
2021/03/12 06:20:13;;;;;;;10.53;3.57;;;7.00;99.90;;;;;;5065968;28;20489;-69
2021/03/12 06:22:59;;;;;;;8.57;4.53;;;7.00;99.90;;;;;;5040108;28;20428;-69
2021/03/12 06:25:31;;;;;;;7.93;3.30;;;7.10;99.90;;;;;;5047919;28;21044;-69
2021/03/12 06:28:12;;;;;;;13.67;4.33;;;7.00;99.90;;;;;;5071904;28;20415;-68
2021/03/12 06:30:38;;;;;;;12.57;3.60;;;7.10;99.90;;;;;;5047585;28;20441;-68
2021/03/12 06:33:04;;;;;;;6.90;2.57;;;7.10;99.90;;;;;;5065736;28;20776;-68
2021/03/12 06:35:36;;;;;;;7.60;5.00;;;7.10;99.90;;;;;;5061264;28;20193;-68
2021/03/12 06:38:09;;;;;;;9.33;2.77;;;7.10;99.90;;;;;;5037659;28;20190;-70
2021/03/12 06:40:38;;;;;;;12.00;2.30;;;7.00;99.90;;;;;;5064934;28;20589;-67
2021/03/12 06:43:10;;;;;;;8.47;2.50;;;7.10;99.90;;;;;;5057447;28;20427;-70
2021/03/12 06:45:41;;;;;;;8.10;2.50;;;7.10;99.90;;;;;;5045588;28;20518;-68
2021/03/12 06:48:22;;;;;;;11.30;3.70;;;7.10;99.90;;;;;;5041575;28;20436;-69
2021/03/12 06:50:50;;;;;;;11.80;2.87;;;7.20;99.90;;;;;;5037431;28;20451;-71
2021/03/12 06:53:20;;;;;;;7.63;2.77;;;7.30;99.90;;;;;;5051338;28;20424;-70
2021/03/12 06:55:45;;;;;;;14.10;3.97;;;7.30;99.90;;;;;;5062727;28;20784;-68
2021/03/12 06:58:11;;;;;;;8.57;3.27;;;7.40;99.90;;;;;;5050217;28;20436;-68
2021/03/12 07:00:37;;;;;;;7.17;4.30;;;7.40;99.90;;;;;;5041050;28;20204;-68
2021/03/12 07:03:16;;;;;;;11.03;2.93;;;7.30;99.90;;;;;;5062488;28;20193;-69
2021/03/12 07:05:54;;;;;;;8.40;3.23;;;7.40;99.90;;;;;;5055014;28;20271;-69
2021/03/12 07:08:38;;;;;;;12.70;3.50;;;7.40;99.90;;;;;;5043407;28;20559;-70
2021/03/12 07:11:23;;;;;;;11.80;4.57;;;7.40;99.90;;;;;;5057970;28;20515;-70
2021/03/12 07:13:51;;;;;;;8.30;3.30;;;7.50;99.90;;;;;;5055195;28;20417;-70
2021/03/12 07:16:18;;;;;;;15.70;3.40;;;7.50;99.90;;;;;;5054260;28;20461;-70
2021/03/12 07:18:44;;;;;;;10.97;2.90;;;7.50;99.90;;;;;;5065631;28;20502;-70
2021/03/12 07:21:12;;;;;;;6.20;2.67;;;7.50;99.90;;;;;;5063091;28;20467;-70
2021/03/12 07:23:42;;;;;;;9.10;3.47;;;7.50;99.90;;;;;;5063424;28;20484;-69
2021/03/12 07:26:10;;;;;;;9.67;3.50;;;7.40;99.90;;;;;;5051392;28;20542;-69
2021/03/12 07:28:38;;;;;;;6.13;3.13;;;7.40;99.90;;;;;;5047995;28;20925;-69
2021/03/12 07:31:05;;;;;;;6.53;3.10;;;7.50;99.90;;;;;;5064396;28;20448;-69
2021/03/12 07:33:35;;;;;;;8.70;4.47;;;7.50;99.90;;;;;;5062888;28;20994;-69
2021/03/12 07:36:02;;;;;;;7.17;3.40;;;7.50;99.90;;;;;;5068453;28;20433;-69
2021/03/12 07:38:32;;;;;;;10.23;3.10;;;7.60;99.90;;;;;;5055909;28;20419;-69
2021/03/12 07:40:58;;;;;;;10.43;3.40;;;7.60;99.90;;;;;;5060045;28;20530;-69
2021/03/12 07:43:24;;;;;;;8.83;3.50;;;7.70;99.90;;;;;;5065778;28;20413;-70
2021/03/12 07:45:50;;;;;;;7.57;3.57;;;7.70;99.90;;;;;;5072208;28;20456;-69
2021/03/12 07:48:16;;;;;;;7.30;3.50;;;7.60;99.90;;;;;;5080389;28;20416;-69
2021/03/12 07:50:42;;;;;;;7.53;3.70;;;7.70;99.90;;;;;;5062853;28;20510;-69
2021/03/12 07:53:08;;;;;;;7.63;4.10;;;7.70;99.90;;;;;;5064217;28;20175;-70
2021/03/12 07:55:39;;;;;;;7.53;3.73;;;7.70;99.90;;;;;;5062513;28;20424;-71
2021/03/12 07:58:07;;;;;;;10.40;3.40;;;7.70;99.90;;;;;;5049474;28;20428;-70
2021/03/12 08:00:51;;;;;;;7.03;3.33;;;7.80;99.90;;;;;;5052409;28;20463;-70
2021/03/12 08:03:31;;;;;;;11.33;3.63;;;7.80;99.90;;;;;;5048945;28;20475;-70
2021/03/12 08:05:56;;;;;;;4.80;2.90;;;7.80;99.90;;;;;;5056758;28;20463;-71
2021/03/12 08:08:40;;;;;;;8.30;3.20;;;7.90;99.90;;;;;;5050183;28;20437;-69
2021/03/12 08:11:32;;;;;;;10.30;3.10;;;8.00;99.90;;;;;;5063612;28;20186;-69
2021/03/12 08:14:18;;;;;;;7.77;3.30;;;8.00;99.90;;;;;;5065338;28;20499;-70
2021/03/12 08:17:00;;;;;;;5.63;2.80;;;8.10;99.90;;;;;;5034924;28;20429;-69
2021/03/12 08:19:36;;;;;;;10.87;3.73;;;8.10;99.90;;;;;;5059433;28;20441;-69
2021/03/12 08:22:28;;;;;;;7.47;2.53;;;8.00;99.90;;;;;;5055240;28;20511;-69
2021/03/12 08:24:57;;;;;;;10.30;3.13;;;8.10;99.90;;;;;;5041883;28;20460;-69
2021/03/12 08:27:48;;;;;;;9.67;4.03;;;8.10;99.90;;;;;;5053792;28;20514;-70
2021/03/12 08:30:23;;;;;;;9.90;3.60;;;8.10;99.90;;;;;;5063994;28;20468;-69
2021/03/12 08:32:49;;;;;;;6.57;3.37;;;8.20;99.90;;;;;;5065298;28;20434;-69
2021/03/12 08:35:35;;;;;;;10.73;3.40;;;8.20;99.90;;;;;;5040304;28;20852;-69
2021/03/12 08:38:04;;;;;;;5.60;3.10;;;8.10;99.90;;;;;;5044769;28;20435;-70
2021/03/12 08:40:30;;;;;;;9.13;3.00;;;8.10;99.90;;;;;;5041814;28;20438;-69
2021/03/12 08:43:15;;;;;;;9.50;2.93;;;8.10;99.90;;;;;;5033514;28;20448;-70
2021/03/12 08:45:44;;;;;;;9.17;3.03;;;8.20;99.90;;;;;;5044009;28;20497;-68
2021/03/12 08:48:12;;;;;;;6.60;2.90;;;8.20;99.90;;;;;;5036931;28;20431;-69
2021/03/12 08:50:40;;;;;;;4.80;2.50;;;8.30;99.90;;;;;;5047105;28;20438;-69
2021/03/12 08:53:06;;;;;;;6.47;2.90;;;8.40;99.90;;;;;;5041924;28;20441;-69
2021/03/12 08:55:33;;;;;;;9.10;3.20;;;8.40;99.90;;;;;;5038038;28;20433;-69
2021/03/12 08:58:17;;;;;;;16.63;3.40;;;8.60;99.90;;;;;;5030189;28;20412;-70
2021/03/12 09:00:44;;;;;;;10.17;2.93;;;8.70;99.90;;;;;;5043386;28;20464;-69
2021/03/12 09:03:23;;;;;;;9.43;3.20;;;8.70;99.90;;;;;;5057375;28;20415;-71
2021/03/12 09:05:53;;;;;;;7.57;2.90;;;8.80;99.90;;;;;;5056075;28;20925;-70
2021/03/12 09:08:26;;;;;;;9.27;3.20;;;8.80;99.90;;;;;;5066944;28;20775;-69
2021/03/12 09:10:52;;;;;;;10.82;3.00;;;8.90;99.90;;;;;;5045442;28;20804;-69
2021/03/12 09:13:20;;;;;;;7.67;3.20;;;8.90;99.90;;;;;;5061570;28;20219;-69
2021/03/12 09:15:47;;;;;;;6.10;3.33;;;8.90;99.90;;;;;;5051799;28;21112;-69
2021/03/12 09:18:18;;;;;;;7.47;2.97;;;8.80;99.90;;;;;;5045667;28;20778;-71
2021/03/12 09:20:48;;;;;;;9.23;3.33;;;8.80;99.90;;;;;;5044413;28;20475;-69
2021/03/12 09:23:14;;;;;;;12.30;3.53;;;8.80;99.90;;;;;;5058272;28;20562;-70
2021/03/12 09:25:39;;;;;;;13.53;4.23;;;8.70;99.90;;;;;;5051523;28;20586;-70
2021/03/12 09:28:10;;;;;;;5.70;2.73;;;8.70;99.90;;;;;;5061102;28;20187;-69
2021/03/12 09:30:40;;;;;;;9.67;2.70;;;8.70;99.90;;;;;;5051413;28;20215;-69
2021/03/12 09:33:07;;;;;;;5.73;2.80;;;8.70;99.90;;;;;;5053556;28;20525;-70
2021/03/12 09:35:42;;;;;;;9.83;3.33;;;8.70;99.90;;;;;;5058329;28;20408;-70
2021/03/12 09:38:08;;;;;;;15.47;4.83;;;8.70;99.90;;;;;;5039292;28;20954;-70
2021/03/12 09:40:40;;;;;;;8.27;3.17;;;8.70;99.90;;;;;;5046025;28;20434;-70
2021/03/12 09:43:07;;;;;;;9.30;3.60;;;8.70;99.90;;;;;;5040784;28;20855;-70
2021/03/12 09:45:33;;;;;;;16.57;2.93;;;8.70;99.90;;;;;;5047059;28;20923;-70
2021/03/12 09:47:58;;;;;;;9.40;4.07;;;8.80;99.90;;;;;;5039016;28;20961;-70
2021/03/12 09:50:25;;;;;;;10.90;3.37;;;8.90;99.90;;;;;;5055476;28;20549;-70
2021/03/12 09:52:56;;;;;;;7.40;2.90;;;9.00;99.90;;;;;;5050617;28;20221;-69
2021/03/12 09:55:23;;;;;;;9.00;3.13;;;9.00;99.90;;;;;;5055247;28;20422;-70
2021/03/12 09:57:49;;;;;;;13.50;3.73;;;9.10;99.90;;;;;;5058722;28;20556;-70
2021/03/12 10:00:24;;;;;;;10.93;2.93;;;9.00;99.90;;;;;;5058156;28;20545;-70
2021/03/12 10:02:57;;;;;;;8.07;3.30;;;9.00;99.90;;;;;;5042739;28;20173;-70
2021/03/12 10:05:24;;;;;;;6.67;3.30;;;9.10;99.90;;;;;;5058804;28;20456;-69
2021/03/12 10:07:51;;;;;;;4.00;2.53;;;9.10;99.70;;;;;;5053139;28;20486;-70
2021/03/12 10:10:32;;;;;;;6.97;2.50;;;9.10;99.30;;;;;;5055539;28;20455;-70
2021/03/12 10:13:03;;;;;;;6.27;2.70;;;9.10;99.40;;;;;;5049309;28;20432;-70
2021/03/12 10:15:30;;;;;;;7.40;3.20;;;9.20;99.60;;;;;;5042168;28;20581;-70
2021/03/12 10:17:56;;;;;;;4.40;2.60;;;9.20;99.50;;;;;;5049217;28;20437;-68
2021/03/12 10:20:30;;;;;;;9.30;3.23;;;9.20;99.40;;;;;;5059091;28;20460;-69
2021/03/12 10:23:01;;;;;;;7.37;2.67;;;9.20;99.00;;;;;;5060347;28;20429;-69
2021/03/12 10:25:32;;;;;;;10.17;3.10;;;9.30;99.10;;;;;;5055210;28;20471;-69
2021/03/12 10:28:01;;;;;;;10.07;2.93;;;9.30;98.80;;;;;;5056494;28;20416;-69
2021/03/12 10:30:32;;;;;;;8.03;2.70;;;9.40;98.90;;;;;;5050595;28;20595;-70
2021/03/12 10:33:00;;;;;;;6.83;2.63;;;9.50;98.70;;;;;;5049512;28;20420;-69
2021/03/12 10:35:41;;;;;;;9.00;2.80;;;9.40;98.20;;;;;;5055205;28;20901;-70
2021/03/12 10:38:18;;;;;;;9.43;2.90;;;9.30;98.20;;;;;;5055711;28;20918;-69
2021/03/12 10:40:46;;;;;;;6.13;2.40;;;9.50;98.20;;;;;;5052154;28;20957;-69
2021/03/12 10:43:19;;;;;;;7.40;3.20;;;9.60;98.20;;;;;;5051454;28;20935;-69
2021/03/12 10:45:51;;;;;;;13.70;2.70;;;9.70;97.30;;;;;;5055885;28;20792;-69
2021/03/12 10:48:19;;;;;;;5.33;2.80;;;9.60;97.10;;;;;;5055852;28;20414;-69
2021/03/12 10:51:12;;;;;;;10.60;2.80;;;9.50;97.20;;;;;;5055803;28;20424;-69
2021/03/12 10:53:48;;;;;;;5.60;3.50;;;9.40;97.00;;;;;;4993886;28;20568;-69
2021/03/12 10:56:15;;;;;;;5.47;2.53;;;9.50;97.20;;;;;;4994606;28;20418;-69
2021/03/12 10:58:41;;;;;;;9.87;2.80;;;9.70;97.00;;;;;;4994169;28;20419;-69
2021/03/12 11:01:14;;;;;;;8.23;2.90;;;9.90;96.70;;;;;;5001849;28;20577;-70
2021/03/12 11:03:44;;;;;;;7.30;3.10;;;10.10;95.80;;;;;;4995862;28;20426;-70
2021/03/12 11:06:11;;;;;;;5.40;2.40;;;10.00;94.90;;;;;;5013863;28;20466;-69
2021/03/12 11:08:37;;;;;;;8.40;2.93;;;10.00;94.70;;;;;;5014280;28;20998;-69
2021/03/12 11:11:07;;;;;;;12.93;2.80;;;10.00;94.50;;;;;;5014491;28;20510;-69
2021/03/12 11:13:33;;;;;;;5.77;2.77;;;10.00;94.10;;;;;;5014004;28;20473;-69
2021/03/12 11:15:59;;;;;;;8.00;2.67;;;10.00;94.10;;;;;;5014110;28;20465;-71
2021/03/12 11:18:28;;;;;;;7.20;2.20;;;9.90;94.50;;;;;;5013294;28;20431;-70
2021/03/12 11:20:54;;;;;;;7.13;2.00;;;9.90;94.70;;;;;;5013182;28;20226;-69
2021/03/12 11:23:19;;;;;;;5.80;2.50;;;9.90;94.60;;;;;;5013268;28;20425;-70
2021/03/12 11:25:45;;;;;;;5.90;2.20;;;9.90;94.60;;;;;;5013152;28;20207;-70
2021/03/12 11:28:10;;;;;;;6.00;2.93;;;10.00;93.90;;;;;;5013086;28;20201;-69
2021/03/12 11:30:36;;;;;;;6.23;2.40;;;10.00;93.80;;;;;;5026539;28;20216;-69
2021/03/12 11:33:05;;;;;;;7.13;2.57;;;10.10;93.70;;;;;;5036839;28;20233;-70
2021/03/12 11:35:31;;;;;;;8.50;2.60;;;10.10;93.50;;;;;;5035271;28;20224;-69
2021/03/12 11:37:57;;;;;;;10.47;2.43;;;10.20;93.70;;;;;;5042565;28;20485;-69
2021/03/12 11:40:23;;;;;;;5.80;2.30;;;10.10;93.70;;;;;;5048869;28;20505;-69
2021/03/12 11:42:49;;;;;;;8.83;2.30;;;10.20;93.90;;;;;;5052921;28;20402;-69
2021/03/12 11:45:17;;;;;;;9.87;2.60;;;10.30;94.00;;;;;;5054854;28;20230;-69
2021/03/12 11:47:43;;;;;;;4.13;2.50;;;10.20;93.70;;;;;;5036720;28;20209;-69
2021/03/12 11:50:13;;;;;;;6.10;2.33;;;10.10;93.90;;;;;;5034381;28;20926;-69
2021/03/12 11:52:38;;;;;;;7.27;2.10;;;10.20;93.80;;;;;;5034299;28;20421;-69
2021/03/12 11:55:06;;;;;;;6.53;2.20;;;10.20;93.70;;;;;;5035927;28;20428;-70
2021/03/12 11:57:32;;;;;;;7.90;2.60;;;10.30;93.50;;;;;;5034553;28;20171;-70
2021/03/12 11:59:58;;;;;;;8.83;2.17;;;10.40;93.40;;;;;;5034198;28;20842;-70
2021/03/12 12:02:23;;;;;;;6.37;2.40;;;10.30;93.10;;;;;;5034876;28;20167;-70
2021/03/12 12:04:49;;;;;;;4.40;2.40;;;10.40;93.20;;;;;;5035267;28;20285;-70
2021/03/12 12:07:15;;;;;;;2.60;1.80;;;10.50;93.10;;;;;;5034602;28;20197;-69
2021/03/12 12:09:42;;;;;;;9.00;2.53;;;10.60;92.60;;;;;;5033804;28;20196;-70
2021/03/12 12:12:10;;;;;;;8.73;2.67;;;10.60;92.60;;;;;;5034130;28;20424;-70
2021/03/12 12:14:37;;;;;;;6.77;2.10;;;10.60;92.60;;;;;;5032318;28;20911;-71
2021/03/12 12:17:03;;;;;;;12.13;2.67;;;10.70;92.50;;;;;;5042234;28;20470;-69
2021/03/12 12:19:29;;;;;;;4.23;2.27;;;10.80;92.10;;;;;;5047184;28;20428;-72
2021/03/12 12:21:54;;;;;;;9.33;2.10;;;10.80;93.50;;;;;;5054481;28;20439;-70
2021/03/12 12:24:30;;;;;;;5.80;2.00;;;10.90;93.90;;;;;;5066963;28;20208;-71
2021/03/12 12:26:56;;;;;;;5.77;2.23;;;11.00;93.90;;;;;;5052541;28;20200;-70
2021/03/12 12:29:22;;;;;;;6.03;2.10;;;11.10;93.90;;;;;;5066395;28;20901;-71
2021/03/12 12:31:47;;;;;;;8.50;2.03;;;11.20;93.70;;;;;;5063691;28;20477;-70
2021/03/12 12:34:13;;;;;;;6.47;2.30;;;11.30;93.00;;;;;;5059877;28;20187;-70
2021/03/12 12:36:38;;;;;;;4.87;2.20;;;11.40;93.30;;;;;;5069324;28;20592;-69
2021/03/12 12:39:07;;;;;;;5.50;1.90;;;11.50;92.60;;;;;;5042668;28;20192;-70
2021/03/12 12:41:34;;;;;;;8.13;1.97;;;11.50;91.50;;;;;;5065109;28;20248;-69
2021/03/12 12:43:59;;;;;;;11.70;2.50;;;11.50;92.00;;;;;;5018778;28;20459;-69
2021/03/12 12:46:25;;;;;;;9.33;1.90;;;11.50;90.80;;;;;;5046471;28;20777;-70
2021/03/12 12:48:50;;;;;;;9.67;2.50;;;11.30;90.70;;;;;;5043326;28;20190;-69
2021/03/12 12:51:16;;;;;;;6.40;2.23;;;11.10;90.50;;;;;;5047765;28;20675;-69
2021/03/12 12:53:42;;;;;;;7.90;3.27;;;10.90;90.80;;;;;;5055226;28;20717;-69
2021/03/12 12:56:08;;;;;;;7.53;1.80;;;10.80;90.50;;;;;;5037182;28;20425;-70
2021/03/12 12:58:35;;;;;;;8.43;2.40;;;10.70;90.60;;;;;;5040764;28;20229;-69
2021/03/12 13:01:00;;;;;;;7.63;2.17;;;10.70;90.60;;;;;;5047605;28;20812;-69